Time;durP1;ratioP1;P1;durP2;ratioP2;P2;SDS_P1;SDS_P2;PMS_P1;PMS_P2;Temp;Humidity;BMP_temperature;BMP_pressure;BME280_temperature;BME280_humidity;BME280_pressure;Samples;Min_cycle;Max_cycle;Signal;HPM_P1;HPM_P2
2021/05/09 00:02:19;;;;;;;1.80;1.70;;;;;;;14.13;50.67;95391.53;4993871;28;20195;-83
2021/05/09 00:04:45;;;;;;;1.97;1.70;;;;;;;14.14;50.78;95387.94;4993887;28;20672;-83
2021/05/09 00:07:12;;;;;;;1.90;1.63;;;;;;;14.12;51.35;95393.31;4994646;28;20215;-82
2021/05/09 00:09:38;;;;;;;2.67;1.80;;;;;;;14.16;50.94;95385.94;4994764;28;20208;-85
2021/05/09 00:12:08;;;;;;;2.30;1.80;;;;;;;14.09;51.22;95385.97;4994720;28;20679;-83
2021/05/09 00:14:34;;;;;;;2.30;1.83;;;;;;;14.11;50.83;95389.16;4995227;28;20586;-84
2021/05/09 00:17:00;;;;;;;3.07;1.90;;;;;;;14.07;51.05;95385.38;4994419;28;20698;-85
2021/05/09 00:19:26;;;;;;;2.13;1.50;;;;;;;14.06;51.46;95383.78;4994879;28;20203;-84
2021/05/09 00:21:52;;;;;;;1.90;1.80;;;;;;;14.03;51.18;95384.19;4993995;28;20207;-83
2021/05/09 00:24:18;;;;;;;1.70;1.40;;;;;;;14.05;51.80;95381.38;4994101;28;20234;-83
2021/05/09 00:26:44;;;;;;;2.43;1.50;;;;;;;14.04;51.94;95374.66;4994397;28;20286;-82
2021/05/09 00:29:11;;;;;;;1.90;1.60;;;;;;;14.05;51.26;95379.59;4994417;28;20203;-83
2021/05/09 00:31:36;;;;;;;2.53;1.57;;;;;;;14.07;51.12;95377.59;4994559;28;20210;-83
2021/05/09 00:34:03;;;;;;;1.73;1.50;;;;;;;14.05;50.92;95374.41;4993742;28;20222;-83
2021/05/09 00:36:29;;;;;;;2.90;1.50;;;;;;;13.96;51.76;95378.22;4993923;28;20218;-82
2021/05/09 00:38:55;;;;;;;2.27;1.70;;;;;;;13.98;51.49;95376.25;4994590;28;20564;-83
2021/05/09 00:41:21;;;;;;;1.50;1.40;;;;;;;13.97;51.87;95376.44;4994630;28;20218;-83
2021/05/09 00:43:47;;;;;;;2.70;1.60;;;;;;;13.99;52.35;95377.84;4993156;28;20199;-86
2021/05/09 00:46:13;;;;;;;1.67;1.57;;;;;;;14.02;51.89;95366.28;4994258;28;20235;-83
2021/05/09 00:48:39;;;;;;;1.70;1.60;;;;;;;14.02;51.72;95368.88;4993521;28;20293;-83
2021/05/09 00:51:05;;;;;;;2.23;1.40;;;;;;;14.00;52.52;95366.47;4993597;28;20718;-83
2021/05/09 00:53:33;;;;;;;2.20;1.50;;;;;;;13.95;52.17;95375.84;4993306;28;20667;-83
2021/05/09 00:56:01;;;;;;;1.87;1.50;;;;;;;13.94;52.11;95374.25;4993636;28;20215;-81
2021/05/09 00:58:28;;;;;;;1.70;1.60;;;;;;;13.90;51.90;95360.13;4994075;28;20880;-82
2021/05/09 01:00:54;;;;;;;1.40;1.30;;;;;;;13.89;51.94;95363.69;4993913;28;20216;-85
2021/05/09 01:03:27;;;;;;;1.93;1.50;;;;;;;13.86;52.19;95362.31;4993487;28;20593;-85
2021/05/09 01:05:54;;;;;;;1.57;1.40;;;;;;;13.79;52.41;95366.72;4993649;28;20326;-83
2021/05/09 01:08:20;;;;;;;1.63;1.50;;;;;;;13.77;52.31;95372.09;4992859;28;20231;-82
2021/05/09 01:10:46;;;;;;;1.70;1.43;;;;;;;13.72;52.68;95361.53;4992624;28;20200;-85
2021/05/09 01:13:12;;;;;;;1.60;1.50;;;;;;;13.75;52.51;95361.16;4993021;28;20561;-83
2021/05/09 01:15:39;;;;;;;1.43;1.30;;;;;;;13.74;52.31;95356.16;4992642;28;20219;-83
2021/05/09 01:18:05;;;;;;;1.60;1.40;;;;;;;13.74;52.46;95356.16;4993186;28;20215;-85
2021/05/09 01:20:38;;;;;;;1.60;1.50;;;;;;;13.70;53.27;95349.81;4992817;28;20234;-84
2021/05/09 01:23:05;;;;;;;1.50;1.40;;;;;;;13.72;52.65;95353.78;4991382;28;20253;-82
2021/05/09 01:25:31;;;;;;;1.67;1.57;;;;;;;13.66;52.48;95352.00;4970868;28;20680;-82
2021/05/09 01:27:58;;;;;;;1.50;1.40;;;;;;;13.68;52.83;95351.78;4976764;28;20258;-81
2021/05/09 01:30:24;;;;;;;2.00;1.43;;;;;;;13.69;52.36;95355.97;4990943;28;20874;-82
2021/05/09 01:32:51;;;;;;;1.50;1.30;;;;;;;13.59;53.15;95358.97;4990749;28;20235;-82
2021/05/09 01:35:17;;;;;;;2.40;1.70;;;;;;;13.63;52.71;95346.44;4990151;28;20230;-82
2021/05/09 01:37:44;;;;;;;1.70;1.60;;;;;;;13.60;52.32;95352.00;4990642;28;20207;-82
2021/05/09 01:40:12;;;;;;;1.60;1.50;;;;;;;13.57;52.39;95344.66;4990721;28;20208;-82
2021/05/09 01:42:38;;;;;;;2.57;1.40;;;;;;;13.59;52.47;95351.22;4990425;28;20212;-82
2021/05/09 01:45:06;;;;;;;2.13;1.37;;;;;;;13.59;52.75;95353.81;4990109;28;20238;-84
2021/05/09 01:47:33;;;;;;;3.10;1.73;;;;;;;13.56;52.21;95356.78;4990250;28;20216;-82
2021/05/09 01:49:59;;;;;;;1.60;1.40;;;;;;;13.59;52.54;95347.84;4991134;28;20203;-82
2021/05/09 01:52:25;;;;;;;2.10;1.60;;;;;;;13.59;52.31;95347.84;4990270;28;20211;-83
2021/05/09 01:54:51;;;;;;;1.37;1.27;;;;;;;13.62;52.48;95342.25;4990727;28;20223;-82
2021/05/09 01:57:17;;;;;;;2.60;1.57;;;;;;;13.62;51.93;95344.84;4990368;28;20246;-82
2021/05/09 01:59:44;;;;;;;2.00;1.40;;;;;;;13.51;53.02;95343.66;4990079;28;20200;-81
2021/05/09 02:02:10;;;;;;;1.40;1.30;;;;;;;13.57;52.45;95342.06;4990548;28;20217;-83
2021/05/09 02:04:36;;;;;;;1.67;1.40;;;;;;;13.54;52.47;95343.25;4990192;28;20261;-81
2021/05/09 02:07:02;;;;;;;1.33;1.23;;;;;;;13.54;52.64;95334.69;4990395;28;20223;-83
2021/05/09 02:09:28;;;;;;;1.33;1.23;;;;;;;13.55;52.81;95338.88;4990025;28;20222;-81
2021/05/09 02:11:55;;;;;;;2.80;1.30;;;;;;;13.51;52.25;95340.28;4990291;28;20563;-81
2021/05/09 02:14:21;;;;;;;1.80;1.63;;;;;;;13.60;51.67;95334.69;4990078;28;20216;-81
2021/05/09 02:16:47;;;;;;;1.20;1.10;;;;;;;13.61;51.82;95343.25;4990380;28;20812;-81
2021/05/09 02:19:13;;;;;;;1.43;1.33;;;;;;;13.58;51.63;95341.06;4989870;28;20285;-81
2021/05/09 02:21:39;;;;;;;1.20;1.10;;;;;;;13.59;52.33;95333.09;4990154;28;20210;-81
2021/05/09 02:24:05;;;;;;;1.30;1.20;;;;;;;13.61;52.21;95333.72;4990124;28;20223;-81
2021/05/09 02:26:31;;;;;;;1.47;1.27;;;;;;;13.60;51.55;95333.91;4990104;28;20239;-81
2021/05/09 02:28:58;;;;;;;1.40;1.30;;;;;;;13.61;51.30;95336.28;4993831;28;20849;-81
2021/05/09 02:31:24;;;;;;;1.40;1.30;;;;;;;13.59;51.33;95332.31;4994106;28;20200;-82
2021/05/09 02:33:50;;;;;;;2.70;1.40;;;;;;;13.62;51.04;95327.53;4994362;28;20203;-82
2021/05/09 02:36:16;;;;;;;1.27;1.17;;;;;;;13.64;51.28;95337.69;4993965;28;20319;-82
2021/05/09 02:38:42;;;;;;;1.33;1.00;;;;;;;13.62;50.96;95335.31;4994299;28;20203;-83
2021/05/09 02:41:08;;;;;;;3.47;1.50;;;;;;;13.57;51.31;95336.88;4993846;28;20262;-83
2021/05/09 02:43:34;;;;;;;1.00;1.00;;;;;;;13.51;51.43;95335.09;4993092;28;20199;-83
2021/05/09 02:46:01;;;;;;;1.30;1.10;;;;;;;13.51;51.57;95337.69;4994135;28;20243;-85
2021/05/09 02:48:26;;;;;;;1.77;1.20;;;;;;;13.51;50.91;95335.88;4994456;28;20223;-84
2021/05/09 02:50:52;;;;;;;1.20;1.10;;;;;;;13.53;51.00;95331.31;4994371;28;20270;-83
2021/05/09 02:53:18;;;;;;;1.20;1.10;;;;;;;13.48;50.65;95337.09;4993784;28;20210;-84
2021/05/09 02:55:44;;;;;;;1.73;1.30;;;;;;;13.48;50.46;95336.28;4993490;28;20223;-83
2021/05/09 02:58:10;;;;;;;1.40;1.17;;;;;;;13.51;50.38;95338.47;4994188;28;20616;-83
2021/05/09 03:00:36;;;;;;;1.20;1.00;;;;;;;13.53;50.05;95336.50;4993815;28;20712;-84
2021/05/09 03:03:03;;;;;;;1.10;1.00;;;;;;;13.54;50.04;95326.94;4994285;28;20230;-83
2021/05/09 03:05:29;;;;;;;0.90;0.90;;;;;;;13.51;50.13;95333.31;4993690;28;20230;-83
2021/05/09 03:07:55;;;;;;;1.00;1.00;;;;;;;13.52;50.02;95327.13;4993916;28;20738;-83
2021/05/09 03:10:21;;;;;;;1.13;1.03;;;;;;;13.52;50.05;95334.09;4992966;28;20206;-83
2021/05/09 03:12:47;;;;;;;1.17;1.07;;;;;;;13.51;50.15;95330.72;4992524;28;20207;-83
2021/05/09 03:15:14;;;;;;;1.43;1.00;;;;;;;13.52;49.80;95334.09;4993436;28;20215;-83
2021/05/09 03:17:40;;;;;;;1.30;1.20;;;;;;;13.52;49.71;95319.38;4993497;28;20200;-84
2021/05/09 03:20:08;;;;;;;1.50;1.13;;;;;;;13.49;49.41;95325.75;4993516;28;20705;-83
2021/05/09 03:22:34;;;;;;;1.20;1.10;;;;;;;13.53;49.26;95328.72;4993308;28;20215;-83
2021/05/09 03:25:00;;;;;;;1.30;1.20;;;;;;;13.57;49.40;95327.34;4992968;28;20235;-84
2021/05/09 03:27:26;;;;;;;1.97;1.07;;;;;;;13.60;49.15;95329.53;4992944;28;20216;-83
2021/05/09 03:29:52;;;;;;;1.03;0.90;;;;;;;13.60;49.20;95332.13;4993951;28;20211;-83
2021/05/09 03:32:18;;;;;;;1.20;1.10;;;;;;;13.59;49.33;95333.09;4992767;28;20222;-83
2021/05/09 03:34:44;;;;;;;1.20;1.10;;;;;;;13.54;48.95;95329.53;4992738;28;20211;-84
2021/05/09 03:37:11;;;;;;;1.47;1.30;;;;;;;13.54;48.95;95332.13;4992570;28;20196;-84
2021/05/09 03:39:37;;;;;;;1.10;1.00;;;;;;;13.57;48.88;95327.34;4991882;28;20621;-83
2021/05/09 03:42:04;;;;;;;1.20;1.00;;;;;;;13.63;48.61;95329.13;4992662;28;20203;-83
2021/05/09 03:44:30;;;;;;;1.63;1.10;;;;;;;13.57;48.69;95326.53;4992465;28;20642;-83
2021/05/09 03:46:56;;;;;;;2.50;1.00;;;;;;;13.58;48.98;95328.94;4992439;28;20234;-83
2021/05/09 03:49:22;;;;;;;1.37;1.27;;;;;;;13.60;48.78;95328.72;4992767;28;20663;-83
2021/05/09 03:51:48;;;;;;;1.40;1.20;;;;;;;13.61;49.15;95328.53;4992335;28;20725;-83
2021/05/09 03:54:14;;;;;;;1.57;1.30;;;;;;;13.54;48.52;95327.72;4992360;28;20202;-83
2021/05/09 03:56:40;;;;;;;1.97;1.00;;;;;;;13.60;48.63;95333.91;4992806;28;20239;-83
2021/05/09 03:59:06;;;;;;;1.03;0.97;;;;;;;13.59;48.81;95319.38;4992726;28;20204;-83
2021/05/09 04:01:32;;;;;;;1.27;0.90;;;;;;;13.65;48.81;95327.13;4992977;28;20568;-83
2021/05/09 04:03:58;;;;;;;1.00;1.00;;;;;;;13.65;48.48;95328.94;4992584;28;20288;-84
2021/05/09 04:06:24;;;;;;;2.10;1.23;;;;;;;13.57;48.09;95327.34;4993446;28;20230;-84
2021/05/09 04:08:50;;;;;;;1.77;1.03;;;;;;;13.61;48.09;95325.16;4992509;28;20223;-84
2021/05/09 04:11:18;;;;;;;1.77;1.10;;;;;;;13.64;47.50;95322.16;4992883;28;20827;-83
2021/05/09 04:13:44;;;;;;;1.83;1.00;;;;;;;13.72;48.01;95329.69;4992528;28;20234;-83
2021/05/09 04:16:10;;;;;;;1.20;0.90;;;;;;;13.75;47.72;95324.91;4993347;28;20753;-83
2021/05/09 04:18:36;;;;;;;1.20;1.13;;;;;;;13.83;47.47;95326.50;4991986;28;20187;-83
2021/05/09 04:21:02;;;;;;;1.00;1.00;;;;;;;13.89;47.26;95315.31;4992285;28;20204;-83
2021/05/09 04:23:28;;;;;;;1.30;1.10;;;;;;;13.94;47.61;95309.53;4992546;28;20207;-83
2021/05/09 04:25:54;;;;;;;1.40;1.30;;;;;;;13.98;47.71;95321.09;4991343;28;20243;-84
2021/05/09 04:28:21;;;;;;;1.40;1.30;;;;;;;13.97;47.74;95306.56;4991958;28;20227;-84
2021/05/09 04:30:48;;;;;;;0.90;0.90;;;;;;;14.03;47.56;95311.72;4993030;28;20669;-84
2021/05/09 04:33:16;;;;;;;1.17;1.07;;;;;;;14.03;47.11;95316.09;4992831;28;20258;-84
2021/05/09 04:35:43;;;;;;;1.20;1.10;;;;;;;14.11;47.20;95310.69;4992907;28;20223;-84
2021/05/09 04:38:11;;;;;;;2.27;1.20;;;;;;;14.07;46.99;95305.13;4992046;28;20198;-84
2021/05/09 04:40:37;;;;;;;2.20;1.30;;;;;;;14.16;47.29;95313.47;4991822;28;20662;-84
2021/05/09 04:43:07;;;;;;;1.63;1.53;;;;;;;14.26;47.16;95313.81;4991955;28;20594;-83
2021/05/09 04:45:34;;;;;;;1.50;1.40;;;;;;;14.34;47.19;95313.56;4991429;28;20722;-83
2021/05/09 04:48:00;;;;;;;1.47;1.37;;;;;;;14.40;46.98;95310.19;4990790;28;20295;-84
2021/05/09 04:50:26;;;;;;;1.30;1.20;;;;;;;14.46;46.57;95309.34;4991997;28;20199;-85
2021/05/09 04:52:52;;;;;;;2.13;1.20;;;;;;;14.52;46.99;95316.31;4991924;28;20203;-83
2021/05/09 04:55:18;;;;;;;1.10;1.00;;;;;;;14.54;46.49;95315.31;4996286;28;20219;-84
2021/05/09 04:57:44;;;;;;;1.40;1.17;;;;;;;14.60;46.54;95310.09;4992158;28;20206;-84
2021/05/09 05:00:13;;;;;;;1.13;1.00;;;;;;;14.65;46.45;95315.44;4992160;28;20195;-84
2021/05/09 05:02:40;;;;;;;13.63;8.53;;;;;;;14.70;46.36;95310.44;4991741;28;20231;-83
2021/05/09 05:05:07;;;;;;;6.37;5.70;;;;;;;14.80;46.30;95313.38;4991073;28;20219;-83
2021/05/09 05:07:33;;;;;;;2.67;2.10;;;;;;;14.88;46.15;95307.13;4991301;28;20617;-84
2021/05/09 05:09:59;;;;;;;2.17;1.43;;;;;;;14.90;46.07;95302.53;4989728;28;20258;-84
2021/05/09 05:12:25;;;;;;;1.70;1.20;;;;;;;14.92;46.16;95302.31;4990488;28;20195;-85
2021/05/09 05:14:50;;;;;;;1.80;1.17;;;;;;;14.94;45.57;95310.69;4991356;28;20204;-83
2021/05/09 05:17:17;;;;;;;1.40;1.20;;;;;;;15.00;45.55;95313.25;4991954;28;20223;-85
2021/05/09 05:19:43;;;;;;;1.50;1.10;;;;;;;15.11;45.71;95312.56;4991310;28;20230;-84
2021/05/09 05:22:09;;;;;;;1.23;1.10;;;;;;;15.14;45.48;95299.16;4991551;28;20200;-84
2021/05/09 05:24:35;;;;;;;1.50;1.23;;;;;;;15.19;45.94;95311.50;4990911;28;20255;-84
2021/05/09 05:27:01;;;;;;;1.30;1.20;;;;;;;15.24;45.58;95309.06;4991453;28;20199;-85
2021/05/09 05:29:27;;;;;;;1.20;1.10;;;;;;;15.32;45.02;95303.63;4990889;28;20195;-84
2021/05/09 05:31:53;;;;;;;1.00;1.00;;;;;;;15.38;44.96;95301.97;4990759;28;20195;-85
2021/05/09 05:34:21;;;;;;;1.50;1.10;;;;;;;15.45;44.61;95300.91;4990237;28;20254;-85
2021/05/09 05:36:48;;;;;;;0.90;0.90;;;;;;;15.60;44.95;95299.78;4988096;28;20220;-85
2021/05/09 05:39:14;;;;;;;1.10;1.00;;;;;;;15.62;44.21;95300.38;4990602;28;20207;-85
2021/05/09 05:41:40;;;;;;;1.07;1.00;;;;;;;15.71;43.96;95299.88;4988176;28;20211;-83
2021/05/09 05:44:07;;;;;;;2.33;1.10;;;;;;;15.80;44.03;95300.38;4992860;28;20207;-85
2021/05/09 05:46:34;;;;;;;1.47;1.10;;;;;;;15.86;44.26;95296.94;4990307;28;20277;-84
2021/05/09 05:49:00;;;;;;;1.33;0.90;;;;;;;15.95;43.39;95297.47;4990016;28;20224;-84
2021/05/09 05:51:26;;;;;;;1.17;1.07;;;;;;;16.02;43.03;95283.38;4989403;28;20206;-84
2021/05/09 05:53:58;;;;;;;0.83;0.83;;;;;;;16.17;42.95;95283.78;4990547;28;20192;-83
2021/05/09 05:56:28;;;;;;;1.17;1.07;;;;;;;16.26;43.40;95292.09;4984523;28;20239;-85
2021/05/09 05:58:54;;;;;;;1.47;1.10;;;;;;;16.32;42.22;95288.63;4991114;28;20741;-85
2021/05/09 06:01:22;;;;;;;1.40;1.03;;;;;;;16.38;42.21;95292.91;4991021;28;20196;-85
2021/05/09 06:03:48;;;;;;;1.37;1.00;;;;;;;16.44;41.96;95284.25;4988727;28;20215;-85
2021/05/09 06:06:14;;;;;;;2.20;0.95;;;;;;;16.54;42.58;95286.34;4990596;28;20635;-83
2021/05/09 06:08:42;;;;;;;1.38;0.80;;;;;;;16.64;42.43;95280.63;4990321;28;20706;-84
2021/05/09 06:11:09;;;;;;;1.02;0.90;;;;;;;16.74;41.83;95292.06;4991143;28;20211;-85
2021/05/09 06:13:35;;;;;;;2.25;0.90;;;;;;;16.82;41.70;95291.75;4990902;28;20246;-85
2021/05/09 06:16:00;;;;;;;0.95;0.95;;;;;;;16.86;41.08;95292.13;4990272;28;20211;-85
2021/05/09 06:18:26;;;;;;;1.20;1.00;;;;;;;16.93;40.63;95290.97;4991291;28;20674;-84
2021/05/09 06:20:54;;;;;;;1.83;0.98;;;;;;;17.05;41.01;95298.03;4990746;28;20561;-84
2021/05/09 06:23:21;;;;;;;1.27;0.90;;;;;;;17.17;41.83;95289.22;4992056;28;20254;-83
2021/05/09 06:25:47;;;;;;;1.00;0.90;;;;;;;17.27;41.66;95292.09;4994874;28;20282;-84
2021/05/09 06:28:16;;;;;;;0.80;0.80;;;;;;;17.35;41.01;95290.94;4988194;28;20223;-87
2021/05/09 06:30:43;;;;;;;1.65;0.90;;;;;;;17.45;41.07;95287.78;4990054;28;20199;-85
2021/05/09 06:33:10;;;;;;;1.10;1.00;;;;;;;17.54;42.10;95281.22;4989050;28;20262;-83
2021/05/09 06:35:38;;;;;;;0.98;0.82;;;;;;;17.58;40.84;95275.31;4989660;28;20273;-84
2021/05/09 06:38:04;;;;;;;1.08;0.98;;;;;;;17.66;40.72;95281.25;4989406;28;20590;-82
2021/05/09 06:40:30;;;;;;;1.15;1.05;;;;;;;17.77;41.54;95270.81;4990168;28;20590;-86
2021/05/09 06:42:57;;;;;;;1.77;1.00;;;;;;;17.84;40.63;95276.69;4989634;28;20212;-85
2021/05/09 06:45:27;;;;;;;1.10;1.00;;;;;;;17.88;40.19;95277.84;4989694;28;20231;-83
2021/05/09 06:47:53;;;;;;;2.67;0.90;;;;;;;17.93;40.30;95279.72;4988685;28;20602;-83
2021/05/09 06:50:20;;;;;;;1.17;1.00;;;;;;;18.00;39.56;95274.41;4990520;28;20211;-82
2021/05/09 06:52:46;;;;;;;1.52;1.10;;;;;;;18.12;40.93;95281.16;4989635;28;20261;-82
2021/05/09 06:55:13;;;;;;;1.35;1.00;;;;;;;18.22;39.76;95275.38;4989587;28;20739;-84
2021/05/09 06:57:39;;;;;;;2.53;1.02;;;;;;;18.27;39.11;95275.47;4989010;28;20262;-85
2021/05/09 07:00:07;;;;;;;3.80;2.13;;;;;;;18.39;39.54;95278.03;4990063;28;20211;-85
2021/05/09 07:02:34;;;;;;;2.30;1.20;;;;;;;18.50;40.12;95279.78;4989611;28;20258;-85
2021/05/09 07:05:00;;;;;;;1.40;1.10;;;;;;;18.59;39.81;95281.84;4990499;28;20603;-85
2021/05/09 07:07:26;;;;;;;1.00;0.88;;;;;;;18.70;39.39;95282.00;4989811;28;20223;-82
2021/05/09 07:09:52;;;;;;;0.95;0.82;;;;;;;18.78;39.37;95281.63;4989129;28;20211;-85
2021/05/09 07:12:18;;;;;;;2.03;1.00;;;;;;;18.85;38.76;95277.06;4989059;28;20210;-82
2021/05/09 07:14:44;;;;;;;0.80;0.80;;;;;;;19.01;39.64;95273.69;4993061;28;20240;-83
2021/05/09 07:17:13;;;;;;;1.20;1.10;;;;;;;19.17;40.48;95279.94;4991926;28;20200;-84
2021/05/09 07:19:45;;;;;;;1.75;1.02;;;;;;;19.28;41.38;95276.44;4992192;28;20203;-82
2021/05/09 07:22:15;;;;;;;1.13;1.00;;;;;;;19.41;40.61;95280.56;4992559;28;20227;-84
2021/05/09 07:24:45;;;;;;;1.00;0.90;;;;;;;19.54;40.62;95272.41;4991638;28;20594;-83
2021/05/09 07:27:13;;;;;;;4.82;4.05;;;;;;;19.63;40.42;95269.13;4991568;28;20199;-85
2021/05/09 07:29:42;;;;;;;4.50;1.90;;;;;;;19.74;39.54;95270.09;4991642;28;20214;-83
2021/05/09 07:32:16;;;;;;;2.22;1.42;;;;;;;19.83;41.39;95267.84;4991623;28;20204;-84
2021/05/09 07:34:45;;;;;;;1.33;1.15;;;;;;;19.94;40.67;95267.72;4991938;28;20211;-86
2021/05/09 07:37:14;;;;;;;0.82;0.82;;;;;;;20.06;39.02;95270.22;4990818;28;20701;-84
2021/05/09 07:39:41;;;;;;;1.75;1.13;;;;;;;20.22;39.84;95263.34;4990586;28;20671;-85
2021/05/09 07:42:07;;;;;;;2.45;1.00;;;;;;;20.34;40.49;95264.81;5003860;28;20195;-87
2021/05/09 07:44:33;;;;;;;0.90;0.90;;;;;;;20.50;39.04;95265.00;4994945;28;20281;-85
2021/05/09 07:47:01;;;;;;;1.67;1.10;;;;;;;20.63;38.73;95267.22;4993890;28;20227;-84
2021/05/09 07:49:27;;;;;;;1.20;1.10;;;;;;;20.73;38.16;95267.31;4993561;28;20274;-86
2021/05/09 07:51:54;;;;;;;1.42;1.00;;;;;;;20.89;39.29;95263.81;4993477;28;20675;-83
2021/05/09 07:54:22;;;;;;;1.92;0.80;;;;;;;21.03;39.49;95259.72;4993515;28;20204;-82
2021/05/09 07:56:48;;;;;;;1.23;1.10;;;;;;;21.16;37.88;95258.53;4993643;28;20722;-85
2021/05/09 07:59:14;;;;;;;2.78;1.23;;;;;;;21.30;37.35;95262.34;4993334;28;20299;-84
2021/05/09 08:01:43;;;;;;;1.08;0.85;;;;;;;21.44;37.40;95260.06;4993667;28;20199;-85
2021/05/09 08:04:11;;;;;;;0.90;0.90;;;;;;;21.50;36.57;95256.44;4993905;28;20230;-86
2021/05/09 08:06:38;;;;;;;1.27;0.98;;;;;;;21.64;36.57;95256.78;4993416;28;20286;-84
2021/05/09 08:09:08;;;;;;;1.10;0.90;;;;;;;21.71;36.33;95258.16;4993054;28;20219;-86
2021/05/09 08:11:34;;;;;;;3.85;1.08;;;;;;;21.82;37.00;95256.34;4993780;28;20545;-86
2021/05/09 08:14:00;;;;;;;1.27;1.00;;;;;;;21.94;36.27;95245.66;4994616;28;20246;-84
2021/05/09 08:16:26;;;;;;;1.50;0.90;;;;;;;22.07;36.33;95244.44;4993801;28;20222;-85
2021/05/09 08:18:55;;;;;;;1.40;0.90;;;;;;;22.24;36.79;95245.03;4993903;28;20292;-82
2021/05/09 08:21:21;;;;;;;1.27;1.10;;;;;;;22.42;36.61;95243.75;4994487;28;20203;-85
2021/05/09 08:23:47;;;;;;;0.90;0.90;;;;;;;22.57;35.73;95234.06;4994237;28;20698;-86
2021/05/09 08:26:17;;;;;;;4.35;0.90;;;;;;;22.73;36.01;95235.66;4993571;28;20282;-86
2021/05/09 08:28:47;;;;;;;0.80;0.80;;;;;;;22.78;34.86;95234.94;4991713;28;20228;-84
2021/05/09 08:31:16;;;;;;;1.02;0.90;;;;;;;22.89;36.03;95233.13;4991715;28;20195;-83
2021/05/09 08:33:44;;;;;;;1.42;0.90;;;;;;;23.05;35.57;95232.84;4993916;28;20245;-82
2021/05/09 08:36:15;;;;;;;1.10;1.00;;;;;;;23.25;35.22;95233.88;4993068;28;20227;-83
2021/05/09 08:38:41;;;;;;;1.10;1.00;;;;;;;23.37;35.17;95227.28;4993600;28;20200;-82
2021/05/09 08:41:10;;;;;;;0.90;0.90;;;;;;;23.47;33.77;95237.03;4992927;28;20226;-85
2021/05/09 08:43:37;;;;;;;1.92;1.02;;;;;;;23.52;34.15;95231.75;4992917;28;20202;-85
2021/05/09 08:46:03;;;;;;;1.00;0.90;;;;;;;23.64;33.99;95223.59;4992189;28;20278;-86
2021/05/09 08:48:31;;;;;;;1.20;1.10;;;;;;;23.84;34.07;95223.53;4992183;28;20781;-86
2021/05/09 08:50:57;;;;;;;1.50;1.00;;;;;;;24.02;34.23;95228.22;4993503;28;20218;-86
2021/05/09 08:53:23;;;;;;;2.60;1.20;;;;;;;24.15;33.57;95218.94;4991777;28;20580;-85
2021/05/09 08:55:49;;;;;;;1.77;1.13;;;;;;;24.30;33.31;95218.09;4990700;28;20892;-86
2021/05/09 08:58:16;;;;;;;1.85;1.17;;;;;;;24.40;32.74;95215.44;4991806;28;20219;-86
2021/05/09 09:00:43;;;;;;;3.65;1.00;;;;;;;24.53;33.02;95209.53;4992642;28;20215;-82
2021/05/09 09:03:12;;;;;;;2.97;1.08;;;;;;;24.65;33.64;95209.19;4992427;28;20250;-85
2021/05/09 09:05:40;;;;;;;1.23;1.00;;;;;;;24.71;32.49;95213.38;4991877;28;20223;-82
2021/05/09 09:08:09;;;;;;;1.10;1.00;;;;;;;24.86;32.01;95204.56;4989561;28;20223;-85
2021/05/09 09:10:38;;;;;;;1.98;1.10;;;;;;;24.93;30.80;95211.09;4991506;28;20222;-85
2021/05/09 09:13:22;;;;;;;1.20;1.10;;;;;;;25.04;30.99;95206.56;4992718;28;20250;-83
2021/05/09 09:16:48;;;;;;;1.33;1.20;;;;;;;25.14;32.50;95203.84;4991553;28;20231;-82
2021/05/09 09:19:20;;;;;;;1.30;1.20;;;;;;;25.31;31.73;95195.53;4961063;28;20406;-85
2021/05/09 09:21:46;;;;;;;1.52;0.90;;;;;;;25.54;32.04;95186.06;4994458;28;20221;-85
2021/05/09 09:24:15;;;;;;;2.33;1.13;;;;;;;25.64;30.89;95180.69;4992236;28;20199;-86
2021/05/09 09:26:52;;;;;;;1.63;1.30;;;;;;;25.66;30.79;95187.28;4991048;28;20239;-83
2021/05/09 09:29:28;;;;;;;1.63;1.08;;;;;;;25.58;30.19;95182.59;4992327;28;20355;-86
2021/05/09 09:31:58;;;;;;;1.20;1.10;;;;;;;25.70;30.59;95183.00;4991461;28;20206;-86
2021/05/09 09:34:40;;;;;;;2.03;1.52;;;;;;;25.81;31.48;95179.19;4990667;28;20692;-83
2021/05/09 09:37:07;;;;;;;2.90;1.00;;;;;;;25.90;29.14;95179.34;4989573;28;20207;-86
2021/05/09 09:39:51;;;;;;;1.30;1.20;;;;;;;25.99;29.31;95168.94;4990997;28;20203;-85
2021/05/09 09:42:35;;;;;;;1.33;1.20;;;;;;;26.15;29.30;95162.41;4991804;28;20248;-84
2021/05/09 09:45:13;;;;;;;1.20;1.00;;;;;;;26.26;27.71;95170.97;4991243;28;20255;-87
2021/05/09 09:47:49;;;;;;;1.27;1.17;;;;;;;26.41;27.52;95168.13;4990647;28;20203;-85
2021/05/09 09:50:36;;;;;;;0.98;0.98;;;;;;;26.48;27.44;95160.66;4992390;28;20203;-83
2021/05/09 09:53:03;;;;;;;1.15;1.05;;;;;;;26.66;28.35;95166.97;4991397;28;20701;-84
2021/05/09 09:55:29;;;;;;;1.15;1.05;;;;;;;26.60;26.02;95150.41;4992131;28;20715;-82
2021/05/09 09:58:02;;;;;;;1.08;1.08;;;;;;;26.66;25.22;95157.19;4991548;28;20223;-84
2021/05/09 10:00:28;;;;;;;1.00;1.00;;;;;;;26.74;26.03;95148.63;4992399;28;20258;-85
2021/05/09 10:02:55;;;;;;;1.20;1.10;;;;;;;26.76;24.92;95149.09;4991207;28;20231;-87
2021/05/09 10:05:21;;;;;;;1.10;1.00;;;;;;;26.90;24.71;95143.88;4991376;28;20207;-85
2021/05/09 10:07:49;;;;;;;1.00;1.00;;;;;;;26.88;23.40;95147.88;4991798;28;20718;-86
2021/05/09 10:10:16;;;;;;;1.30;1.00;;;;;;;27.01;22.76;95144.50;4992881;28;20214;-85
2021/05/09 10:12:43;;;;;;;1.38;1.00;;;;;;;27.13;23.12;95135.03;4991217;28;20271;-86
2021/05/09 10:15:09;;;;;;;1.10;1.00;;;;;;;27.33;22.43;95144.44;4992203;28;20230;-85
2021/05/09 10:17:37;;;;;;;3.80;3.50;;;;;;;27.31;23.00;95135.28;4991014;28;20215;-85
2021/05/09 10:20:04;;;;;;;1.55;1.45;;;;;;;27.34;22.90;95129.38;4992512;28;20251;-85
2021/05/09 10:22:32;;;;;;;1.60;1.40;;;;;;;27.45;23.29;95123.63;4991274;28;20203;-83
2021/05/09 10:24:59;;;;;;;1.17;1.10;;;;;;;27.50;23.08;95125.38;4991254;28;20289;-85
2021/05/09 10:27:36;;;;;;;1.20;1.10;;;;;;;27.61;23.85;95125.97;4990845;28;20207;-86
2021/05/09 10:30:03;;;;;;;1.35;0.90;;;;;;;27.66;22.74;95125.88;4991298;28;20202;-85
2021/05/09 10:32:49;;;;;;;1.45;1.00;;;;;;;27.62;22.08;95127.56;4990169;28;20207;-83
2021/05/09 10:35:16;;;;;;;0.90;0.90;;;;;;;27.51;21.88;95119.00;4989160;28;20258;-83
2021/05/09 10:38:08;;;;;;;11.75;10.75;;;;;;;27.58;21.83;95116.78;4987825;28;20215;-84
2021/05/09 10:40:38;;;;;;;1.05;1.05;;;;;;;27.53;21.83;95108.91;4988696;28;20213;-84
2021/05/09 10:43:34;;;;;;;1.10;0.90;;;;;;;27.64;22.40;95112.97;4988627;28;20214;-83
2021/05/09 10:46:00;;;;;;;1.02;1.00;;;;;;;27.73;23.12;95116.47;4991428;28;20231;-82
2021/05/09 10:48:32;;;;;;;1.00;1.00;;;;;;;27.64;22.53;95112.16;4992604;28;20270;-85
2021/05/09 10:51:31;;;;;;;1.95;1.20;;;;;;;27.44;22.04;95094.81;4995256;28;20207;-84
2021/05/09 10:54:18;;;;;;;0.98;0.90;;;;;;;27.47;22.47;95107.44;4994715;28;20192;-84
2021/05/09 10:56:45;;;;;;;1.30;1.20;;;;;;;27.44;21.78;95106.19;4973896;28;20231;-83
2021/05/09 10:59:12;;;;;;;1.17;1.08;;;;;;;27.46;21.94;95106.66;4974795;28;20228;-85
2021/05/09 11:01:38;;;;;;;3.08;1.10;;;;;;;27.63;21.05;95098.16;4975482;28;20235;-84
2021/05/09 11:04:05;;;;;;;5.50;4.97;;;;;;;27.63;21.07;95092.09;4992418;28;20203;-85
2021/05/09 11:06:52;;;;;;;2.40;2.20;;;;;;;27.70;20.93;95089.84;4995466;28;20281;-84
2021/05/09 11:09:36;;;;;;;1.10;0.93;;;;;;;27.71;20.21;95084.22;4993076;28;20627;-85
2021/05/09 11:12:04;;;;;;;2.80;1.00;;;;;;;27.66;19.72;95083.56;4990672;28;20210;-84
2021/05/09 11:14:34;;;;;;;1.17;0.95;;;;;;;27.68;20.00;95084.84;4993676;28;20199;-85
2021/05/09 11:17:03;;;;;;;1.30;1.20;;;;;;;27.72;20.35;95077.84;4995943;28;20229;-86
2021/05/09 11:19:39;;;;;;;1.00;0.85;;;;;;;27.64;19.36;95081.22;4992104;28;20219;-87
2021/05/09 11:22:07;;;;;;;1.00;0.80;;;;;;;27.61;19.48;95071.22;5000296;28;20198;-86
2021/05/09 11:24:34;;;;;;;0.95;0.90;;;;;;;27.62;18.97;95077.28;5014399;28;20205;-87
2021/05/09 11:27:04;;;;;;;1.10;0.90;;;;;;;27.63;19.17;95068.28;4999285;28;20353;-86
2021/05/09 11:29:31;;;;;;;1.05;0.90;;;;;;;27.76;18.78;95068.25;4995192;28;20290;-87
2021/05/09 11:31:59;;;;;;;1.00;0.93;;;;;;;27.80;19.50;95050.69;4995031;28;20212;-86
2021/05/09 11:34:26;;;;;;;0.98;0.98;;;;;;;27.87;19.93;95060.88;4994963;28;20199;-87
2021/05/09 11:36:57;;;;;;;1.02;1.02;;;;;;;27.95;19.71;95049.56;4993307;28;20219;-91
2021/05/09 11:39:35;;;;;;;1.10;1.00;;;;;;;27.83;19.77;95050.13;4991532;28;20289;-86